Time;durP1;ratioP1;P1;durP2;ratioP2;P2;SDS_P1;SDS_P2;PMS_P1;PMS_P2;Temp;Humidity;BMP_temperature;BMP_pressure;BME280_temperature;BME280_humidity;BME280_pressure;Samples;Min_cycle;Max_cycle;Signal;HPM_P1;HPM_P2
2022/02/09 00:00:53;;;;;;;3.15;2.85;;;;;;;;;;5034173;28;24404;-55
2022/02/09 00:03:21;;;;;;;2.60;2.40;;;;;;;;;;5043372;28;25074;-57
2022/02/09 00:06:01;;;;;;;2.90;2.70;;;;;;;;;;5029474;28;24428;-57
2022/02/09 00:08:26;;;;;;;2.75;2.55;;;;;;;;;;5046081;28;25015;-56
2022/02/09 00:11:01;;;;;;;2.87;2.67;;;;;;;;;;5042242;28;24477;-56
2022/02/09 00:16:29;;;;;;;3.20;3.00;;;;;;;;;;5039006;28;24486;-56
2022/02/09 00:19:02;;;;;;;3.30;2.90;;;;;;;;;;5024601;28;24973;-57
2022/02/09 00:21:49;;;;;;;3.60;3.30;;;;;;;;;;5032840;28;24551;-56
2022/02/09 00:24:43;;;;;;;3.20;2.88;;;;;;;;;;5036365;28;24414;-55
2022/02/09 00:27:33;;;;;;;3.30;3.00;;;;;;;;;;5026675;28;24418;-56
2022/02/09 00:30:17;;;;;;;3.08;2.88;;;;;;;;;;5038687;28;24403;-56
2022/02/09 00:35:38;;;;;;;3.72;3.08;;;;;;;;;;5036135;28;24493;-56
2022/02/09 00:59:48;;;;;;;3.20;3.00;;;;;;;;;;5042949;28;24446;-56
2022/02/09 01:44:26;;;;;;;3.40;3.10;;;;;;;;;;5023849;28;24415;-56
2022/02/09 01:56:53;;;;;;;3.63;3.33;;;;;;;;;;5034093;28;24423;-54
2022/02/09 01:59:18;;;;;;;3.50;3.20;;;;;;;;;;5038260;28;24506;-56
2022/02/09 02:01:43;;;;;;;3.53;3.23;;;;;;;;;;5031816;28;24428;-56
2022/02/09 02:04:09;;;;;;;3.10;2.90;;;;;;;;;;5038468;28;24408;-56
2022/02/09 02:06:35;;;;;;;3.80;3.50;;;;;;;;;;5027317;28;24489;-57
2022/02/09 02:09:00;;;;;;;3.40;3.10;;;;;;;;;;5028556;28;24969;-57
2022/02/09 02:11:33;;;;;;;3.40;3.20;;;;;;;;;;5040603;28;24431;-56
2022/02/09 02:14:12;;;;;;;3.50;3.27;;;;;;;;;;5037142;28;25072;-56
2022/02/09 02:16:44;;;;;;;3.13;2.92;;;;;;;;;;5036334;28;24463;-57
2022/02/09 02:19:25;;;;;;;3.70;3.40;;;;;;;;;;5048568;28;24462;-56
2022/02/09 02:22:02;;;;;;;3.28;2.90;;;;;;;;;;5046070;28;24444;-57
2022/02/09 02:24:57;;;;;;;3.50;3.20;;;;;;;;;;5039669;28;24491;-56
2022/02/09 02:41:07;;;;;;;3.70;3.40;;;;;;;;;;5031250;28;24434;-56
2022/02/09 03:12:42;;;;;;;3.70;3.40;;;;;;;;;;5037680;28;24419;-56
2022/02/09 03:15:25;;;;;;;3.40;3.20;;;;;;;;;;5034437;28;24447;-56
2022/02/09 03:18:09;;;;;;;3.80;3.50;;;;;;;;;;5029667;28;25000;-55
2022/02/09 03:20:44;;;;;;;3.53;3.33;;;;;;;;;;5033511;28;24411;-56
2022/02/09 03:23:41;;;;;;;3.30;3.10;;;;;;;;;;5031276;28;24422;-56
2022/02/09 03:42:17;;;;;;;3.90;3.50;;;;;;;;;;5038393;28;24395;-56
2022/02/09 03:47:49;;;;;;;3.20;3.00;;;;;;;;;;5026884;28;24426;-56
2022/02/09 03:50:35;;;;;;;3.60;3.30;;;;;;;;;;5030426;28;24424;-57
2022/02/09 03:58:21;;;;;;;2.90;2.70;;;;;;;;;;5036245;28;24568;-57
2022/02/09 04:00:47;;;;;;;2.90;2.70;;;;;;;;;;5032535;28;25044;-57
2022/02/09 04:03:16;;;;;;;3.10;2.90;;;;;;;;;;5035229;28;24408;-56
2022/02/09 04:05:42;;;;;;;3.03;2.83;;;;;;;;;;5032413;28;24427;-57
2022/02/09 04:08:12;;;;;;;3.70;3.40;;;;;;;;;;5034704;28;24431;-56
2022/02/09 04:11:27;;;;;;;3.00;2.80;;;;;;;;;;5035679;28;24412;-56
2022/02/09 04:13:40;;;;;;;3.05;2.85;;;;;;;;;;5040279;28;24469;-56
2022/02/09 04:16:16;;;;;;;3.40;3.10;;;;;;;;;;5028989;28;24450;-56
2022/02/09 04:18:54;;;;;;;3.05;2.85;;;;;;;;;;5036611;28;24416;-56
2022/02/09 04:37:57;;;;;;;3.10;2.90;;;;;;;;;;5028291;28;24426;-56
2022/02/09 04:48:33;;;;;;;3.10;2.90;;;;;;;;;;5037776;28;24438;-56
2022/02/09 04:51:15;;;;;;;2.92;2.72;;;;;;;;;;5035781;28;24489;-56
2022/02/09 04:56:41;;;;;;;2.97;2.60;;;;;;;;;;5058700;28;24533;-57
2022/02/09 05:02:08;;;;;;;2.60;2.40;;;;;;;;;;5037107;28;24426;-57
2022/02/09 05:18:19;;;;;;;2.80;2.60;;;;;;;;;;5028704;28;25217;-56
2022/02/09 05:26:07;;;;;;;3.30;2.85;;;;;;;;;;5032776;28;24458;-57
2022/02/09 05:28:32;;;;;;;2.60;2.40;;;;;;;;;;5039200;28;24419;-56
2022/02/09 05:30:58;;;;;;;2.80;2.60;;;;;;;;;;5036700;28;24423;-57
2022/02/09 05:33:23;;;;;;;2.97;2.77;;;;;;;;;;5029742;28;24774;-56
2022/02/09 05:35:49;;;;;;;3.10;2.80;;;;;;;;;;5025413;28;24794;-57
2022/02/09 05:38:14;;;;;;;2.40;2.30;;;;;;;;;;5027570;28;24431;-57
2022/02/09 05:40:40;;;;;;;2.90;2.70;;;;;;;;;;5042812;28;24419;-58
2022/02/09 05:43:05;;;;;;;2.10;2.00;;;;;;;;;;5024611;28;24457;-58
2022/02/09 05:45:52;;;;;;;3.00;2.10;;;;;;;;;;5024581;28;24852;-57
2022/02/09 05:53:18;;;;;;;2.30;2.20;;;;;;;;;;5031563;28;25023;-57
2022/02/09 05:56:06;;;;;;;2.80;2.60;;;;;;;;;;5025971;28;24850;-57
2022/02/09 06:00:57;;;;;;;2.20;2.00;;;;;;;;;;5040752;28;24454;-57
2022/02/09 06:03:22;;;;;;;2.60;2.40;;;;;;;;;;5024495;28;24447;-57
2022/02/09 06:05:47;;;;;;;2.10;2.00;;;;;;;;;;5030910;28;24533;-56
2022/02/09 06:08:12;;;;;;;2.40;2.10;;;;;;;;;;5025330;28;24523;-57
2022/02/09 06:10:39;;;;;;;2.10;1.90;;;;;;;;;;5027697;28;24459;-57
2022/02/09 06:13:16;;;;;;;2.65;2.45;;;;;;;;;;5027078;28;24497;-57
2022/02/09 06:16:11;;;;;;;2.40;2.20;;;;;;;;;;5023832;28;24846;-57
2022/02/09 06:21:21;;;;;;;2.30;2.20;;;;;;;;;;5030864;28;24542;-57
2022/02/09 06:23:47;;;;;;;2.10;2.00;;;;;;;;;;5031039;28;24416;-57
2022/02/09 06:26:12;;;;;;;2.50;2.30;;;;;;;;;;5030789;28;24427;-57
2022/02/09 06:28:37;;;;;;;2.50;2.25;;;;;;;;;;5035105;28;24469;-56
2022/02/09 06:31:03;;;;;;;2.30;2.20;;;;;;;;;;5045227;28;24462;-56
2022/02/09 06:33:28;;;;;;;2.40;1.90;;;;;;;;;;5046440;28;24770;-57
2022/02/09 06:35:55;;;;;;;2.70;2.50;;;;;;;;;;5046938;28;24434;-56
2022/02/09 06:38:21;;;;;;;2.30;2.10;;;;;;;;;;5037106;28;24416;-57
2022/02/09 06:40:52;;;;;;;2.50;2.30;;;;;;;;;;5031634;28;24408;-57
2022/02/09 06:43:17;;;;;;;2.50;2.30;;;;;;;;;;5030300;28;24981;-57
2022/02/09 06:45:43;;;;;;;2.50;2.30;;;;;;;;;;5039565;28;24815;-55
2022/02/09 06:48:09;;;;;;;2.20;2.10;;;;;;;;;;5050431;28;24398;-55
2022/02/09 06:50:39;;;;;;;2.22;2.03;;;;;;;;;;5049108;28;24423;-56
2022/02/09 06:53:26;;;;;;;2.80;2.60;;;;;;;;;;5048446;28;25007;-56
2022/02/09 06:56:00;;;;;;;2.10;2.00;;;;;;;;;;5034049;28;24450;-56
2022/02/09 07:01:01;;;;;;;2.00;1.90;;;;;;;;;;5039840;28;25058;-57
2022/02/09 07:03:27;;;;;;;1.90;1.80;;;;;;;;;;5033307;28;24420;-56
2022/02/09 07:05:52;;;;;;;2.00;1.80;;;;;;;;;;5033705;28;25265;-56
2022/02/09 07:08:18;;;;;;;2.17;1.97;;;;;;;;;;5040769;28;24427;-57
2022/02/09 07:10:43;;;;;;;2.30;2.05;;;;;;;;;;5030309;28;24432;-57
2022/02/09 07:13:08;;;;;;;2.20;2.10;;;;;;;;;;5041702;28;24465;-56
2022/02/09 07:15:39;;;;;;;2.00;1.90;;;;;;;;;;5049813;28;24538;-58
2022/02/09 07:18:09;;;;;;;1.70;1.60;;;;;;;;;;5048422;28;24504;-57
2022/02/09 07:20:47;;;;;;;2.40;2.20;;;;;;;;;;5037920;28;24427;-57
2022/02/09 07:26:17;;;;;;;1.90;1.70;;;;;;;;;;5049061;28;24865;-57
2022/02/09 07:28:42;;;;;;;1.90;1.80;;;;;;;;;;5037476;28;24419;-57
2022/02/09 07:31:08;;;;;;;1.53;1.43;;;;;;;;;;5036319;28;24431;-57
2022/02/09 07:33:37;;;;;;;1.90;1.80;;;;;;;;;;5035577;28;24423;-56
2022/02/09 07:36:03;;;;;;;1.80;1.70;;;;;;;;;;5031333;28;24442;-56
2022/02/09 07:38:28;;;;;;;2.22;1.90;;;;;;;;;;5027657;28;24447;-57
2022/02/09 07:40:57;;;;;;;1.90;1.80;;;;;;;;;;5029615;28;25208;-57
2022/02/09 07:43:28;;;;;;;2.00;1.90;;;;;;;;;;5030678;28;24422;-57
2022/02/09 07:51:36;;;;;;;1.87;1.77;;;;;;;;;;5057955;28;24422;-56
2022/02/09 07:54:00;;;;;;;1.90;1.80;;;;;;;;;;5032248;28;24418;-56
2022/02/09 07:56:29;;;;;;;2.10;2.00;;;;;;;;;;5038375;28;24431;-57
2022/02/09 07:58:55;;;;;;;2.08;1.90;;;;;;;;;;5035373;28;24798;-57
2022/02/09 08:01:20;;;;;;;1.97;1.87;;;;;;;;;;5032961;28;24999;-56
2022/02/09 08:03:45;;;;;;;2.17;2.07;;;;;;;;;;5034112;28;24416;-56
2022/02/09 08:06:11;;;;;;;2.20;2.00;;;;;;;;;;5031545;28;24431;-56
2022/02/09 08:08:39;;;;;;;2.47;2.30;;;;;;;;;;5048294;28;24485;-55
2022/02/09 08:11:19;;;;;;;2.20;2.00;;;;;;;;;;5036024;28;25047;-56
2022/02/09 08:27:38;;;;;;;2.10;2.00;;;;;;;;;;5028371;28;24989;-56
2022/02/09 08:30:21;;;;;;;2.10;2.00;;;;;;;;;;5028868;28;24432;-56
2022/02/09 08:32:57;;;;;;;1.80;1.70;;;;;;;;;;5027328;28;24489;-58
2022/02/09 08:35:22;;;;;;;2.65;2.45;;;;;;;;;;5034858;28;24434;-58
2022/02/09 08:37:47;;;;;;;2.30;2.10;;;;;;;;;;5034780;28;24539;-57
2022/02/09 08:40:17;;;;;;;2.58;2.38;;;;;;;;;;5027746;28;24967;-57
2022/02/09 08:42:42;;;;;;;2.20;2.10;;;;;;;;;;5028497;28;24420;-57
2022/02/09 08:45:08;;;;;;;2.00;1.90;;;;;;;;;;5026062;28;24832;-56
2022/02/09 08:47:33;;;;;;;2.40;2.20;;;;;;;;;;5038502;28;25024;-57
2022/02/09 08:49:58;;;;;;;1.90;1.80;;;;;;;;;;5046018;28;24491;-56
2022/02/09 08:52:24;;;;;;;1.80;1.70;;;;;;;;;;5032514;28;24493;-56
2022/02/09 08:54:50;;;;;;;1.90;1.80;;;;;;;;;;5027749;28;24471;-56
2022/02/09 08:57:16;;;;;;;2.10;2.00;;;;;;;;;;5027670;28;24467;-57
2022/02/09 08:59:41;;;;;;;2.00;1.90;;;;;;;;;;5027776;28;24463;-57
2022/02/09 09:02:10;;;;;;;2.07;1.97;;;;;;;;;;5031805;28;24418;-57
2022/02/09 09:04:46;;;;;;;2.20;2.00;;;;;;;;;;5042849;28;24418;-57
2022/02/09 09:07:16;;;;;;;2.28;2.17;;;;;;;;;;5039652;28;24962;-57
2022/02/09 09:09:52;;;;;;;1.95;1.85;;;;;;;;;;5027420;28;24470;-57
2022/02/09 09:18:22;;;;;;;2.30;2.20;;;;;;;;;;5037782;28;24428;-56
2022/02/09 10:04:55;;;;;;;2.40;2.20;;;;;;;;;;5044396;28;24438;-57
2022/02/09 10:32:41;;;;;;;2.80;2.60;;;;;;;;;;5033295;28;24992;-57
2022/02/09 10:35:11;;;;;;;2.40;2.30;;;;;;;;;;5043882;28;24493;-58
2022/02/09 10:37:36;;;;;;;2.40;2.30;;;;;;;;;;5029237;28;24483;-57
2022/02/09 10:40:03;;;;;;;2.90;2.70;;;;;;;;;;5045050;28;24954;-57
2022/02/09 10:42:48;;;;;;;2.60;2.40;;;;;;;;;;5046100;28;24786;-56
2022/02/09 10:45:31;;;;;;;2.30;2.20;;;;;;;;;;5038319;28;24977;-56
2022/02/09 10:47:57;;;;;;;2.30;2.20;;;;;;;;;;5035427;28;24966;-56
2022/02/09 10:50:29;;;;;;;2.72;2.53;;;;;;;;;;5026916;28;24448;-56
2022/02/09 10:52:55;;;;;;;2.60;2.40;;;;;;;;;;5026270;28;24759;-56
2022/02/09 10:55:26;;;;;;;2.60;2.40;;;;;;;;;;5024882;28;24422;-56
2022/02/09 10:57:52;;;;;;;2.40;2.20;;;;;;;;;;5041592;28;24941;-56
2022/02/09 11:00:17;;;;;;;2.43;2.23;;;;;;;;;;5038241;28;24446;-57
2022/02/09 11:02:43;;;;;;;2.38;2.22;;;;;;;;;;5037050;28;24474;-56
2022/02/09 11:05:09;;;;;;;2.72;2.53;;;;;;;;;;5026646;28;24414;-57
2022/02/09 11:07:34;;;;;;;2.53;2.40;;;;;;;;;;5026872;28;24992;-56
2022/02/09 11:09:59;;;;;;;2.40;2.30;;;;;;;;;;5034301;28;24419;-56
2022/02/09 11:12:25;;;;;;;2.60;2.40;;;;;;;;;;5039430;28;24435;-57
2022/02/09 11:14:50;;;;;;;2.90;2.70;;;;;;;;;;5025744;28;24431;-56
2022/02/09 11:17:18;;;;;;;2.30;2.10;;;;;;;;;;5028534;28;24431;-56
2022/02/09 11:19:45;;;;;;;2.70;2.50;;;;;;;;;;5027261;28;24517;-56
2022/02/09 11:22:12;;;;;;;2.40;2.20;;;;;;;;;;5030156;28;24829;-57
2022/02/09 11:24:43;;;;;;;2.50;2.30;;;;;;;;;;5038454;28;24766;-57
2022/02/09 11:27:24;;;;;;;2.33;2.22;;;;;;;;;;5035389;28;25344;-56
2022/02/09 11:30:06;;;;;;;2.67;2.47;;;;;;;;;;5042807;28;24437;-56
2022/02/09 11:32:39;;;;;;;2.90;2.70;;;;;;;;;;5048996;28;24415;-56
2022/02/09 11:35:19;;;;;;;2.50;2.30;;;;;;;;;;5034332;28;24782;-56
2022/02/09 11:40:39;;;;;;;2.80;2.60;;;;;;;;;;5040317;28;25270;-56
2022/02/09 11:44:21;;;;;;;2.50;2.30;;;;;;;;;;5029328;28;24424;-56
2022/02/09 11:46:44;;;;;;;2.25;2.15;;;;;;;;;;5040433;28;24431;-56
2022/02/09 11:58:01;;;;;;;2.70;2.50;;;;;;;;;;5048127;28;25019;-56
2022/02/09 12:11:24;;;;;;;2.80;2.60;;;;;;;;;;5030103;28;24446;-56
2022/02/09 12:16:48;;;;;;;2.58;2.38;;;;;;;;;;5043001;28;24986;-56
2022/02/09 12:19:26;;;;;;;2.42;2.22;;;;;;;;;;5028390;28;24446;-56
2022/02/09 12:21:56;;;;;;;2.50;2.30;;;;;;;;;;5032914;28;24428;-56
2022/02/09 12:24:31;;;;;;;2.50;2.30;;;;;;;;;;5047530;28;24461;-56
2022/02/09 12:26:58;;;;;;;2.97;2.78;;;;;;;;;;5048079;28;24816;-56
2022/02/09 12:29:23;;;;;;;2.72;2.53;;;;;;;;;;5028229;28;24447;-57
2022/02/09 12:31:48;;;;;;;2.58;2.38;;;;;;;;;;5028484;28;24535;-57
2022/02/09 12:34:33;;;;;;;2.20;2.10;;;;;;;;;;5044492;28;24434;-57
2022/02/09 12:37:09;;;;;;;2.33;2.13;;;;;;;;;;5031155;28;24438;-57
2022/02/09 12:39:55;;;;;;;2.60;2.40;;;;;;;;;;5034372;28;24454;-57
2022/02/09 12:42:21;;;;;;;2.30;2.20;;;;;;;;;;5037408;28;24531;-56
2022/02/09 12:45:05;;;;;;;2.90;2.70;;;;;;;;;;5028473;28;24973;-56
2022/02/09 12:47:50;;;;;;;2.87;2.53;;;;;;;;;;5029802;28;24503;-56
2022/02/09 12:50:15;;;;;;;2.80;2.60;;;;;;;;;;5034147;28;24439;-56
2022/02/09 12:52:43;;;;;;;2.40;2.20;;;;;;;;;;5027407;28;21414;-57
2022/02/09 12:55:13;;;;;;;2.80;2.60;;;;;;;;;;5035949;28;24833;-56
2022/02/09 12:57:41;;;;;;;2.70;2.30;;;;;;;;;;5037205;28;24439;-56
2022/02/09 13:00:07;;;;;;;2.70;2.50;;;;;;;;;;5042692;28;24964;-56
2022/02/09 13:02:45;;;;;;;3.90;2.30;;;;;;;;;;5026892;28;24454;-57
2022/02/09 13:05:11;;;;;;;2.50;2.30;;;;;;;;;;5034760;28;24952;-56
2022/02/09 13:07:36;;;;;;;2.63;2.42;;;;;;;;;;5047687;28;24426;-56
2022/02/09 13:10:01;;;;;;;2.80;2.60;;;;;;;;;;5040094;28;24519;-57
2022/02/09 13:12:28;;;;;;;2.50;2.30;;;;;;;;;;5027546;28;24827;-57
2022/02/09 13:15:01;;;;;;;2.90;2.70;;;;;;;;;;5027860;28;24519;-57
2022/02/09 13:17:53;;;;;;;2.70;2.50;;;;;;;;;;5043324;28;25050;-57
2022/02/09 13:20:46;;;;;;;3.00;2.30;;;;;;;;;;5026794;28;24570;-57
2022/02/09 13:26:29;;;;;;;2.70;2.50;;;;;;;;;;5029966;28;24404;-57
2022/02/09 13:52:39;;;;;;;2.80;2.30;;;;;;;;;;5032541;28;24418;-57
2022/02/09 14:13:25;;;;;;;2.80;2.60;;;;;;;;;;5026782;28;24420;-57
2022/02/09 14:19:04;;;;;;;2.28;2.08;;;;;;;;;;5026885;28;24415;-57
2022/02/09 14:56:00;;;;;;;3.33;3.03;;;;;;;;;;5024978;28;24511;-57
2022/02/09 14:58:28;;;;;;;2.75;2.55;;;;;;;;;;5029636;28;24436;-57
2022/02/09 15:06:26;;;;;;;2.80;2.60;;;;;;;;;;5039462;28;24751;-57
2022/02/09 15:09:04;;;;;;;2.50;2.30;;;;;;;;;;5031043;28;24814;-58
2022/02/09 15:14:59;;;;;;;2.90;2.70;;;;;;;;;;5011300;28;24475;-57
2022/02/09 15:22:34;;;;;;;2.78;2.58;;;;;;;;;;5029665;28;24487;-58
2022/02/09 15:25:00;;;;;;;2.92;2.70;;;;;;;;;;5031240;28;24990;-57
2022/02/09 15:27:25;;;;;;;3.20;2.80;;;;;;;;;;5037742;28;24527;-56
2022/02/09 15:29:52;;;;;;;2.60;2.40;;;;;;;;;;5032501;28;24818;-57
2022/02/09 15:32:35;;;;;;;3.13;2.53;;;;;;;;;;5030519;28;24946;-56
2022/02/09 15:38:03;;;;;;;2.97;2.78;;;;;;;;;;5048823;28;24608;-57
2022/02/09 15:40:45;;;;;;;3.00;2.80;;;;;;;;;;5048212;28;24718;-57
2022/02/09 15:57:44;;;;;;;2.95;2.75;;;;;;;;;;5040294;28;24474;-56
2022/02/09 16:05:35;;;;;;;2.80;2.60;;;;;;;;;;5035439;28;24423;-57
2022/02/09 16:10:47;;;;;;;2.90;2.70;;;;;;;;;;5027838;28;24459;-57
2022/02/09 16:19:31;;;;;;;2.95;2.75;;;;;;;;;;5033558;28;24826;-56
2022/02/09 16:21:47;;;;;;;4.20;3.80;;;;;;;;;;5029832;28;24451;-56
2022/02/09 16:24:32;;;;;;;3.35;3.05;;;;;;;;;;5045012;28;24422;-56
2022/02/09 16:37:48;;;;;;;4.22;3.83;;;;;;;;;;5034436;28;25050;-57
2022/02/09 16:46:00;;;;;;;3.20;2.90;;;;;;;;;;5037815;28;24454;-57
2022/02/09 16:48:25;;;;;;;3.40;2.80;;;;;;;;;;5028158;28;24390;-56
2022/02/09 16:50:52;;;;;;;3.20;3.00;;;;;;;;;;5028062;28;25049;-58
2022/02/09 16:53:35;;;;;;;2.80;2.60;;;;;;;;;;5048125;28;24409;-56
2022/02/09 17:15:43;;;;;;;3.47;3.17;;;;;;;;;;5036137;28;24841;-57
2022/02/09 17:20:52;;;;;;;3.30;3.00;;;;;;;;;;5026969;28;25092;-56
2022/02/09 17:23:17;;;;;;;3.50;3.20;;;;;;;;;;5027132;28;24428;-56
2022/02/09 17:25:44;;;;;;;3.53;3.27;;;;;;;;;;5041280;28;24794;-56
2022/02/09 17:28:13;;;;;;;3.23;2.93;;;;;;;;;;5047647;28;24392;-56
2022/02/09 17:35:40;;;;;;;3.50;3.20;;;;;;;;;;5032133;28;24424;-57
2022/02/09 17:38:25;;;;;;;3.25;3.05;;;;;;;;;;5026686;28;24603;-56
2022/02/09 17:56:55;;;;;;;3.50;3.20;;;;;;;;;;5036487;28;24996;-56
2022/02/09 17:59:24;;;;;;;3.60;3.30;;;;;;;;;;5046008;28;24501;-57
2022/02/09 18:01:50;;;;;;;3.60;3.33;;;;;;;;;;5045002;28;24387;-56
2022/02/09 18:04:17;;;;;;;3.50;3.20;;;;;;;;;;5040803;28;24422;-56
2022/02/09 18:06:48;;;;;;;3.33;3.03;;;;;;;;;;5027009;28;24412;-56
2022/02/09 18:09:20;;;;;;;3.30;3.10;;;;;;;;;;5022859;28;24454;-56
2022/02/09 18:14:36;;;;;;;3.30;3.03;;;;;;;;;;5024057;28;24473;-56
2022/02/09 18:30:30;;;;;;;3.90;3.50;;;;;;;;;;5022521;28;24404;-56
2022/02/09 18:33:10;;;;;;;3.45;3.15;;;;;;;;;;5027941;28;24458;-56
2022/02/09 18:44:01;;;;;;;3.60;3.30;;;;;;;;;;5027898;28;24641;-56
2022/02/09 18:57:46;;;;;;;4.28;3.72;;;;;;;;;;5030304;28;24430;-56
2022/02/09 19:00:11;;;;;;;3.92;3.47;;;;;;;;;;5036947;28;24767;-57
2022/02/09 19:02:41;;;;;;;4.60;3.50;;;;;;;;;;5029997;28;24419;-57
2022/02/09 19:05:30;;;;;;;3.60;3.30;;;;;;;;;;5030427;28;24404;-57
2022/02/09 19:26:20;;;;;;;3.45;3.15;;;;;;;;;;5032382;28;24762;-56
2022/02/09 19:32:22;;;;;;;3.30;3.10;;;;;;;;;;5025616;28;24482;-57
2022/02/09 19:48:27;;;;;;;3.10;2.65;;;;;;;;;;5047949;28;24489;-57
2022/02/09 19:53:42;;;;;;;3.60;2.78;;;;;;;;;;5032115;28;24420;-56
2022/02/09 19:56:14;;;;;;;3.50;3.20;;;;;;;;;;5029190;28;25028;-57
2022/02/09 19:58:53;;;;;;;2.80;2.60;;;;;;;;;;5042543;28;24840;-56
2022/02/09 20:01:20;;;;;;;2.80;2.60;;;;;;;;;;5028159;28;24506;-56
2022/02/09 20:03:46;;;;;;;3.00;2.80;;;;;;;;;;5028234;28;25011;-56
2022/02/09 20:06:11;;;;;;;2.83;2.50;;;;;;;;;;5040047;28;24431;-57
2022/02/09 20:08:37;;;;;;;2.90;2.70;;;;;;;;;;5025932;28;24972;-56
2022/02/09 20:11:08;;;;;;;3.40;3.10;;;;;;;;;;5036843;28;24954;-57
2022/02/09 20:13:33;;;;;;;3.38;3.08;;;;;;;;;;5033412;28;25103;-57
2022/02/09 20:15:59;;;;;;;3.40;3.10;;;;;;;;;;5026793;28;24475;-57
2022/02/09 20:18:24;;;;;;;3.30;3.00;;;;;;;;;;5026523;28;24744;-57
2022/02/09 20:20:50;;;;;;;3.50;3.20;;;;;;;;;;5029869;28;24435;-57
2022/02/09 20:23:15;;;;;;;2.88;2.63;;;;;;;;;;5026713;28;24424;-57
2022/02/09 20:25:40;;;;;;;3.40;3.10;;;;;;;;;;5032364;28;24416;-57
2022/02/09 20:28:07;;;;;;;2.70;2.50;;;;;;;;;;5039831;28;24481;-56
2022/02/09 20:30:41;;;;;;;2.92;2.72;;;;;;;;;;5026330;28;24427;-56
2022/02/09 20:33:11;;;;;;;2.60;2.40;;;;;;;;;;5030246;28;24426;-55
2022/02/09 20:35:36;;;;;;;2.70;2.50;;;;;;;;;;5036023;28;24495;-55
2022/02/09 20:38:01;;;;;;;2.83;2.63;;;;;;;;;;5029977;28;24477;-56
2022/02/09 20:40:46;;;;;;;3.27;2.97;;;;;;;;;;5028181;28;25013;-56
2022/02/09 20:43:13;;;;;;;3.38;3.08;;;;;;;;;;5024000;28;24407;-56
2022/02/09 20:45:46;;;;;;;3.80;3.40;;;;;;;;;;5044543;28;24462;-57
2022/02/09 20:48:16;;;;;;;3.13;2.92;;;;;;;;;;5039064;28;25226;-55
2022/02/09 20:50:43;;;;;;;3.20;2.90;;;;;;;;;;5029065;28;24497;-56
2022/02/09 20:53:08;;;;;;;3.00;2.80;;;;;;;;;;5033850;28;25157;-56
2022/02/09 20:55:34;;;;;;;3.00;2.80;;;;;;;;;;5026048;28;24500;-56
2022/02/09 20:57:59;;;;;;;2.60;2.40;;;;;;;;;;5035480;28;24550;-57
2022/02/09 21:00:39;;;;;;;3.10;2.90;;;;;;;;;;5025767;28;24419;-56
2022/02/09 21:03:19;;;;;;;2.80;2.60;;;;;;;;;;5028524;28;24414;-57
2022/02/09 21:08:40;;;;;;;2.60;2.40;;;;;;;;;;5041973;28;24782;-57
2022/02/09 21:21:58;;;;;;;3.00;2.70;;;;;;;;;;5028358;28;24922;-55
2022/02/09 21:27:18;;;;;;;2.70;2.50;;;;;;;;;;5038364;28;24435;-56
2022/02/09 21:46:07;;;;;;;2.90;2.70;;;;;;;;;;5031634;28;24415;-56
2022/02/09 21:56:34;;;;;;;2.70;2.50;;;;;;;;;;5031744;28;25017;-56
2022/02/09 22:16:24;;;;;;;2.45;2.35;;;;;;;;;;5035048;28;24438;-56
2022/02/09 22:28:21;;;;;;;2.75;2.55;;;;;;;;;;5027849;28;24506;-56
2022/02/09 22:31:24;;;;;;;2.50;2.30;;;;;;;;;;5038896;28;24424;-56
2022/02/09 22:34:27;;;;;;;2.70;2.50;;;;;;;;;;5027754;28;24515;-55
2022/02/09 22:50:08;;;;;;;3.17;2.57;;;;;;;;;;5038656;28;24541;-57
2022/02/09 22:55:13;;;;;;;2.50;2.30;;;;;;;;;;5026993;28;24566;-56
2022/02/09 22:57:43;;;;;;;2.60;2.40;;;;;;;;;;5039467;28;24439;-53
2022/02/09 23:00:16;;;;;;;3.10;2.80;;;;;;;;;;5037331;28;24831;-56
2022/02/09 23:02:52;;;;;;;2.65;2.45;;;;;;;;;;5036593;28;24412;-56
2022/02/09 23:08:41;;;;;;;2.70;2.50;;;;;;;;;;5027446;28;25075;-56
2022/02/09 23:11:09;;;;;;;2.58;2.40;;;;;;;;;;5029094;28;24427;-56
2022/02/09 23:14:00;;;;;;;2.70;2.50;;;;;;;;;;5026589;28;24420;-57
2022/02/09 23:16:45;;;;;;;2.70;2.50;;;;;;;;;;5030530;28;24638;-54
2022/02/09 23:54:33;;;;;;;2.70;2.50;;;;;;;;;;5033326;28;24454;-54
2022/02/09 23:57:51;;;;;;;2.80;2.60;;;;;;;;;;5039162;28;24522;-55
